sensor_id;sensor_type;location;lat;lon;timestamp;P1;durP1;ratioP1;P2;durP2;ratioP2
19800;SDS011;10060;48.274;12.214;2023-04-25T00:02:16;4.60;;;2.97;;
19800;SDS011;10060;48.274;12.214;2023-04-25T00:05:18;3.53;;;3.10;;
19800;SDS011;10060;48.274;12.214;2023-04-25T00:08:20;4.57;;;3.47;;
19800;SDS011;10060;48.274;12.214;2023-04-25T00:11:22;8.10;;;3.90;;
19800;SDS011;10060;48.274;12.214;2023-04-25T00:14:26;6.13;;;4.43;;
19800;SDS011;10060;48.274;12.214;2023-04-25T00:17:28;4.50;;;3.87;;
19800;SDS011;10060;48.274;12.214;2023-04-25T00:20:31;9.73;;;4.43;;
19800;SDS011;10060;48.274;12.214;2023-04-25T00:23:33;5.77;;;4.40;;
19800;SDS011;10060;48.274;12.214;2023-04-25T00:26:36;4.70;;;3.53;;
19800;SDS011;10060;48.274;12.214;2023-04-25T00:29:39;4.13;;;3.73;;
19800;SDS011;10060;48.274;12.214;2023-04-25T00:32:41;4.70;;;3.83;;
19800;SDS011;10060;48.274;12.214;2023-04-25T00:35:44;6.03;;;3.60;;
19800;SDS011;10060;48.274;12.214;2023-04-25T00:38:46;3.97;;;3.57;;
19800;SDS011;10060;48.274;12.214;2023-04-25T00:41:48;7.57;;;3.93;;
19800;SDS011;10060;48.274;12.214;2023-04-25T00:44:54;4.83;;;3.67;;
19800;SDS011;10060;48.274;12.214;2023-04-25T00:47:56;3.93;;;3.53;;
19800;SDS011;10060;48.274;12.214;2023-04-25T00:50:59;8.80;;;4.10;;
19800;SDS011;10060;48.274;12.214;2023-04-25T00:54:01;4.07;;;3.67;;
19800;SDS011;10060;48.274;12.214;2023-04-25T00:57:03;5.80;;;3.70;;
19800;SDS011;10060;48.274;12.214;2023-04-25T01:00:07;5.13;;;4.07;;
19800;SDS011;10060;48.274;12.214;2023-04-25T01:03:10;5.33;;;3.53;;
19800;SDS011;10060;48.274;12.214;2023-04-25T01:06:13;4.60;;;3.67;;
19800;SDS011;10060;48.274;12.214;2023-04-25T01:09:15;4.97;;;4.17;;
19800;SDS011;10060;48.274;12.214;2023-04-25T01:12:17;5.77;;;3.40;;
19800;SDS011;10060;48.274;12.214;2023-04-25T01:15:21;4.30;;;3.67;;
19800;SDS011;10060;48.274;12.214;2023-04-25T01:18:23;11.10;;;3.27;;
19800;SDS011;10060;48.274;12.214;2023-04-25T01:21:27;7.43;;;6.43;;
19800;SDS011;10060;48.274;12.214;2023-04-25T01:24:30;7.90;;;7.10;;
19800;SDS011;10060;48.274;12.214;2023-04-25T01:27:33;7.80;;;5.90;;
19800;SDS011;10060;48.274;12.214;2023-04-25T01:30:35;5.07;;;4.57;;
19800;SDS011;10060;48.274;12.214;2023-04-25T01:33:37;8.50;;;5.37;;
19800;SDS011;10060;48.274;12.214;2023-04-25T01:36:40;6.17;;;4.90;;
19800;SDS011;10060;48.274;12.214;2023-04-25T01:39:42;5.30;;;3.87;;
19800;SDS011;10060;48.274;12.214;2023-04-25T01:42:45;4.30;;;3.90;;
19800;SDS011;10060;48.274;12.214;2023-04-25T01:45:47;3.50;;;3.20;;
19800;SDS011;10060;48.274;12.214;2023-04-25T01:48:50;4.47;;;3.63;;
19800;SDS011;10060;48.274;12.214;2023-04-25T01:51:53;4.20;;;3.57;;
19800;SDS011;10060;48.274;12.214;2023-04-25T01:54:55;7.13;;;3.60;;
19800;SDS011;10060;48.274;12.214;2023-04-25T01:57:58;3.90;;;3.00;;
19800;SDS011;10060;48.274;12.214;2023-04-25T02:01:00;3.77;;;3.37;;
19800;SDS011;10060;48.274;12.214;2023-04-25T02:04:02;3.80;;;3.40;;
19800;SDS011;10060;48.274;12.214;2023-04-25T02:07:06;5.07;;;3.53;;
19800;SDS011;10060;48.274;12.214;2023-04-25T02:10:08;3.47;;;3.17;;
19800;SDS011;10060;48.274;12.214;2023-04-25T02:13:11;4.00;;;3.50;;
19800;SDS011;10060;48.274;12.214;2023-04-25T02:16:13;4.57;;;3.63;;
19800;SDS011;10060;48.274;12.214;2023-04-25T02:19:15;5.07;;;4.00;;
19800;SDS011;10060;48.274;12.214;2023-04-25T02:22:18;3.80;;;3.47;;
19800;SDS011;10060;48.274;12.214;2023-04-25T02:25:20;3.60;;;3.30;;
19800;SDS011;10060;48.274;12.214;2023-04-25T02:28:23;4.57;;;3.63;;
19800;SDS011;10060;48.274;12.214;2023-04-25T02:31:25;4.50;;;3.13;;
19800;SDS011;10060;48.274;12.214;2023-04-25T02:34:28;4.00;;;3.43;;
19800;SDS011;10060;48.274;12.214;2023-04-25T02:37:31;4.37;;;3.50;;
19800;SDS011;10060;48.274;12.214;2023-04-25T02:40:33;6.83;;;3.60;;
19800;SDS011;10060;48.274;12.214;2023-04-25T02:43:35;3.50;;;3.20;;
19800;SDS011;10060;48.274;12.214;2023-04-25T02:46:37;4.13;;;3.30;;
19800;SDS011;10060;48.274;12.214;2023-04-25T02:49:39;4.23;;;3.63;;
19800;SDS011;10060;48.274;12.214;2023-04-25T02:52:43;6.00;;;3.80;;
19800;SDS011;10060;48.274;12.214;2023-04-25T02:55:45;3.63;;;3.10;;
19800;SDS011;10060;48.274;12.214;2023-04-25T02:58:47;4.87;;;3.20;;
19800;SDS011;10060;48.274;12.214;2023-04-25T03:01:49;4.40;;;3.67;;
19800;SDS011;10060;48.274;12.214;2023-04-25T03:04:51;3.97;;;3.57;;
19800;SDS011;10060;48.274;12.214;2023-04-25T03:07:55;4.77;;;3.43;;
19800;SDS011;10060;48.274;12.214;2023-04-25T03:10:57;3.83;;;3.43;;
19800;SDS011;10060;48.274;12.214;2023-04-25T03:13:59;4.20;;;3.40;;
19800;SDS011;10060;48.274;12.214;2023-04-25T03:17:01;4.67;;;3.37;;
19800;SDS011;10060;48.274;12.214;2023-04-25T03:20:04;5.10;;;3.70;;
19800;SDS011;10060;48.274;12.214;2023-04-25T03:23:09;4.53;;;3.83;;
19800;SDS011;10060;48.274;12.214;2023-04-25T03:26:11;4.63;;;3.20;;
19800;SDS011;10060;48.274;12.214;2023-04-25T03:29:13;3.87;;;3.47;;
19800;SDS011;10060;48.274;12.214;2023-04-25T03:32:15;4.90;;;3.40;;
19800;SDS011;10060;48.274;12.214;2023-04-25T03:35:17;4.00;;;3.40;;
19800;SDS011;10060;48.274;12.214;2023-04-25T03:38:21;6.90;;;3.77;;
19800;SDS011;10060;48.274;12.214;2023-04-25T03:41:23;4.20;;;3.80;;
19800;SDS011;10060;48.274;12.214;2023-04-25T03:44:26;4.37;;;3.73;;
19800;SDS011;10060;48.274;12.214;2023-04-25T03:47:28;4.83;;;3.40;;
19800;SDS011;10060;48.274;12.214;2023-04-25T03:50:30;4.37;;;3.57;;
19800;SDS011;10060;48.274;12.214;2023-04-25T03:53:33;4.10;;;3.40;;
19800;SDS011;10060;48.274;12.214;2023-04-25T03:56:35;4.87;;;3.77;;
19800;SDS011;10060;48.274;12.214;2023-04-25T03:59:37;3.97;;;3.60;;
19800;SDS011;10060;48.274;12.214;2023-04-25T04:02:39;4.33;;;3.70;;
19800;SDS011;10060;48.274;12.214;2023-04-25T04:05:41;7.43;;;3.83;;
19800;SDS011;10060;48.274;12.214;2023-04-25T04:08:46;4.00;;;3.43;;
19800;SDS011;10060;48.274;12.214;2023-04-25T04:11:48;6.47;;;4.07;;
19800;SDS011;10060;48.274;12.214;2023-04-25T04:14:50;5.60;;;4.20;;
19800;SDS011;10060;48.274;12.214;2023-04-25T04:17:53;5.20;;;3.90;;
19800;SDS011;10060;48.274;12.214;2023-04-25T04:20:55;5.20;;;4.03;;
19800;SDS011;10060;48.274;12.214;2023-04-25T04:23:59;4.20;;;3.80;;
19800;SDS011;10060;48.274;12.214;2023-04-25T04:27:01;3.80;;;3.47;;
19800;SDS011;10060;48.274;12.214;2023-04-25T04:30:04;4.87;;;3.33;;
19800;SDS011;10060;48.274;12.214;2023-04-25T04:33:07;4.60;;;3.87;;
19800;SDS011;10060;48.274;12.214;2023-04-25T04:36:09;4.27;;;3.87;;
19800;SDS011;10060;48.274;12.214;2023-04-25T04:39:13;4.70;;;3.93;;
19800;SDS011;10060;48.274;12.214;2023-04-25T04:42:15;6.87;;;3.77;;
19800;SDS011;10060;48.274;12.214;2023-04-25T04:45:17;4.80;;;3.80;;
19800;SDS011;10060;48.274;12.214;2023-04-25T04:48:20;6.20;;;3.50;;
19800;SDS011;10060;48.274;12.214;2023-04-25T04:51:22;4.97;;;3.70;;
19800;SDS011;10060;48.274;12.214;2023-04-25T04:54:26;6.53;;;4.50;;
19800;SDS011;10060;48.274;12.214;2023-04-25T04:57:28;5.73;;;3.50;;
19800;SDS011;10060;48.274;12.214;2023-04-25T05:00:30;4.50;;;3.47;;
19800;SDS011;10060;48.274;12.214;2023-04-25T05:03:33;5.77;;;2.97;;
19800;SDS011;10060;48.274;12.214;2023-04-25T05:06:35;4.77;;;3.30;;
19800;SDS011;10060;48.274;12.214;2023-04-25T05:09:38;4.07;;;3.50;;
19800;SDS011;10060;48.274;12.214;2023-04-25T05:12:40;3.70;;;3.37;;
19800;SDS011;10060;48.274;12.214;2023-04-25T05:15:43;4.83;;;3.00;;
19800;SDS011;10060;48.274;12.214;2023-04-25T05:18:45;3.77;;;3.47;;
19800;SDS011;10060;48.274;12.214;2023-04-25T05:21:47;4.83;;;3.30;;
19800;SDS011;10060;48.274;12.214;2023-04-25T05:24:50;4.37;;;3.20;;
19800;SDS011;10060;48.274;12.214;2023-04-25T05:27:53;6.87;;;2.97;;
19800;SDS011;10060;48.274;12.214;2023-04-25T05:30:55;5.30;;;3.17;;
19800;SDS011;10060;48.274;12.214;2023-04-25T05:33:57;3.50;;;2.80;;
19800;SDS011;10060;48.274;12.214;2023-04-25T05:36:59;3.20;;;2.90;;
19800;SDS011;10060;48.274;12.214;2023-04-25T05:40:03;5.20;;;3.20;;
19800;SDS011;10060;48.274;12.214;2023-04-25T05:43:06;4.60;;;2.60;;
19800;SDS011;10060;48.274;12.214;2023-04-25T05:46:09;3.53;;;2.90;;
19800;SDS011;10060;48.274;12.214;2023-04-25T05:49:11;4.63;;;2.97;;
19800;SDS011;10060;48.274;12.214;2023-04-25T05:52:13;3.20;;;2.43;;
19800;SDS011;10060;48.274;12.214;2023-04-25T05:55:17;3.30;;;2.90;;
19800;SDS011;10060;48.274;12.214;2023-04-25T05:58:19;3.03;;;2.63;;
19800;SDS011;10060;48.274;12.214;2023-04-25T06:01:21;6.77;;;2.77;;
19800;SDS011;10060;48.274;12.214;2023-04-25T06:04:24;4.73;;;2.90;;
19800;SDS011;10060;48.274;12.214;2023-04-25T06:07:26;5.97;;;2.80;;
19800;SDS011;10060;48.274;12.214;2023-04-25T06:10:30;5.17;;;2.80;;
19800;SDS011;10060;48.274;12.214;2023-04-25T06:13:32;4.80;;;3.00;;
19800;SDS011;10060;48.274;12.214;2023-04-25T06:16:34;4.63;;;2.67;;
19800;SDS011;10060;48.274;12.214;2023-04-25T06:19:36;5.20;;;3.13;;
19800;SDS011;10060;48.274;12.214;2023-04-25T06:22:38;3.67;;;2.90;;
19800;SDS011;10060;48.274;12.214;2023-04-25T06:25:42;3.80;;;3.00;;
19800;SDS011;10060;48.274;12.214;2023-04-25T06:28:44;5.97;;;3.07;;
19800;SDS011;10060;48.274;12.214;2023-04-25T06:31:46;4.07;;;2.97;;
19800;SDS011;10060;48.274;12.214;2023-04-25T06:34:48;5.70;;;2.83;;
19800;SDS011;10060;48.274;12.214;2023-04-25T06:37:50;5.83;;;3.13;;
19800;SDS011;10060;48.274;12.214;2023-04-25T06:40:54;4.27;;;3.00;;
19800;SDS011;10060;48.274;12.214;2023-04-25T06:43:56;3.40;;;2.90;;
19800;SDS011;10060;48.274;12.214;2023-04-25T06:46:58;4.37;;;3.00;;
19800;SDS011;10060;48.274;12.214;2023-04-25T06:50:01;3.40;;;3.10;;
19800;SDS011;10060;48.274;12.214;2023-04-25T06:53:03;3.37;;;3.07;;
19800;SDS011;10060;48.274;12.214;2023-04-25T06:56:06;5.43;;;3.53;;
19800;SDS011;10060;48.274;12.214;2023-04-25T06:59:10;7.07;;;3.47;;
19800;SDS011;10060;48.274;12.214;2023-04-25T07:02:12;5.20;;;3.27;;
19800;SDS011;10060;48.274;12.214;2023-04-25T07:05:14;4.77;;;3.30;;
19800;SDS011;10060;48.274;12.214;2023-04-25T07:08:17;4.37;;;3.27;;
19800;SDS011;10060;48.274;12.214;2023-04-25T07:11:22;4.37;;;3.13;;
19800;SDS011;10060;48.274;12.214;2023-04-25T07:14:25;6.17;;;3.63;;
19800;SDS011;10060;48.274;12.214;2023-04-25T07:17:27;7.60;;;3.73;;
19800;SDS011;10060;48.274;12.214;2023-04-25T07:20:29;6.80;;;3.33;;
19800;SDS011;10060;48.274;12.214;2023-04-25T07:23:34;6.30;;;3.63;;
19800;SDS011;10060;48.274;12.214;2023-04-25T07:26:38;4.40;;;3.47;;
19800;SDS011;10060;48.274;12.214;2023-04-25T07:29:40;5.37;;;3.50;;
19800;SDS011;10060;48.274;12.214;2023-04-25T07:32:42;4.97;;;3.30;;
19800;SDS011;10060;48.274;12.214;2023-04-25T07:35:45;4.90;;;3.70;;
19800;SDS011;10060;48.274;12.214;2023-04-25T07:38:47;4.23;;;3.70;;
19800;SDS011;10060;48.274;12.214;2023-04-25T07:41:50;5.40;;;3.63;;
19800;SDS011;10060;48.274;12.214;2023-04-25T07:44:53;4.67;;;3.63;;
19800;SDS011;10060;48.274;12.214;2023-04-25T07:47:55;5.63;;;3.63;;
19800;SDS011;10060;48.274;12.214;2023-04-25T07:50:57;5.37;;;3.50;;
19800;SDS011;10060;48.274;12.214;2023-04-25T07:53:59;5.23;;;3.37;;
19800;SDS011;10060;48.274;12.214;2023-04-25T07:57:02;6.93;;;3.00;;
19800;SDS011;10060;48.274;12.214;2023-04-25T08:00:06;6.83;;;3.20;;
19800;SDS011;10060;48.274;12.214;2023-04-25T08:03:11;4.47;;;3.17;;
19800;SDS011;10060;48.274;12.214;2023-04-25T08:06:13;3.57;;;2.87;;
19800;SDS011;10060;48.274;12.214;2023-04-25T08:09:15;4.63;;;3.30;;
19800;SDS011;10060;48.274;12.214;2023-04-25T08:12:19;5.70;;;3.30;;
19800;SDS011;10060;48.274;12.214;2023-04-25T08:15:21;5.03;;;3.50;;
19800;SDS011;10060;48.274;12.214;2023-04-25T08:18:23;4.47;;;3.23;;
19800;SDS011;10060;48.274;12.214;2023-04-25T08:21:25;5.30;;;3.77;;
19800;SDS011;10060;48.274;12.214;2023-04-25T08:24:27;3.40;;;3.10;;
19800;SDS011;10060;48.274;12.214;2023-04-25T08:27:31;5.13;;;3.10;;
19800;SDS011;10060;48.274;12.214;2023-04-25T08:30:33;3.83;;;3.40;;
19800;SDS011;10060;48.274;12.214;2023-04-25T08:33:35;5.60;;;3.40;;
19800;SDS011;10060;48.274;12.214;2023-04-25T08:36:37;5.10;;;3.30;;
19800;SDS011;10060;48.274;12.214;2023-04-25T08:39:39;7.33;;;4.03;;
19800;SDS011;10060;48.274;12.214;2023-04-25T08:42:43;3.57;;;2.97;;
19800;SDS011;10060;48.274;12.214;2023-04-25T08:45:46;6.40;;;3.80;;
19800;SDS011;10060;48.274;12.214;2023-04-25T08:48:48;3.33;;;3.00;;
19800;SDS011;10060;48.274;12.214;2023-04-25T08:51:50;4.27;;;3.10;;
19800;SDS011;10060;48.274;12.214;2023-04-25T08:54:54;5.93;;;3.60;;
19800;SDS011;10060;48.274;12.214;2023-04-25T08:57:58;4.30;;;3.30;;
19800;SDS011;10060;48.274;12.214;2023-04-25T09:01:01;4.57;;;3.40;;
19800;SDS011;10060;48.274;12.214;2023-04-25T09:04:03;4.73;;;3.20;;
19800;SDS011;10060;48.274;12.214;2023-04-25T09:07:05;3.87;;;3.43;;
19800;SDS011;10060;48.274;12.214;2023-04-25T09:10:08;4.00;;;3.50;;
19800;SDS011;10060;48.274;12.214;2023-04-25T09:13:12;4.83;;;3.20;;
19800;SDS011;10060;48.274;12.214;2023-04-25T09:16:14;5.30;;;3.37;;
19800;SDS011;10060;48.274;12.214;2023-04-25T09:19:20;4.90;;;3.50;;
19800;SDS011;10060;48.274;12.214;2023-04-25T09:22:23;4.50;;;3.23;;
19800;SDS011;10060;48.274;12.214;2023-04-25T09:25:25;5.40;;;2.90;;
19800;SDS011;10060;48.274;12.214;2023-04-25T09:28:29;3.87;;;3.07;;
19800;SDS011;10060;48.274;12.214;2023-04-25T09:31:31;4.90;;;4.10;;
19800;SDS011;10060;48.274;12.214;2023-04-25T09:34:37;3.57;;;3.27;;
19800;SDS011;10060;48.274;12.214;2023-04-25T09:37:40;4.80;;;3.07;;
19800;SDS011;10060;48.274;12.214;2023-04-25T09:40:43;4.27;;;3.37;;
19800;SDS011;10060;48.274;12.214;2023-04-25T09:43:47;4.00;;;3.20;;
19800;SDS011;10060;48.274;12.214;2023-04-25T09:46:51;5.37;;;3.50;;
19800;SDS011;10060;48.274;12.214;2023-04-25T09:49:54;4.90;;;3.43;;
19800;SDS011;10060;48.274;12.214;2023-04-25T09:53:03;3.40;;;2.80;;
19800;SDS011;10060;48.274;12.214;2023-04-25T09:56:06;4.27;;;3.10;;
19800;SDS011;10060;48.274;12.214;2023-04-25T09:59:10;3.30;;;3.00;;
19800;SDS011;10060;48.274;12.214;2023-04-25T10:02:13;4.83;;;2.90;;
19800;SDS011;10060;48.274;12.214;2023-04-25T10:05:15;2.50;;;1.80;;
19800;SDS011;10060;48.274;12.214;2023-04-25T10:08:18;3.00;;;1.70;;
19800;SDS011;10060;48.274;12.214;2023-04-25T10:11:20;1.77;;;1.67;;
19800;SDS011;10060;48.274;12.214;2023-04-25T10:14:25;1.97;;;1.87;;
19800;SDS011;10060;48.274;12.214;2023-04-25T10:17:27;2.47;;;2.00;;
19800;SDS011;10060;48.274;12.214;2023-04-25T10:20:29;3.83;;;2.40;;
19800;SDS011;10060;48.274;12.214;2023-04-25T10:23:32;2.90;;;2.60;;
19800;SDS011;10060;48.274;12.214;2023-04-25T10:26:34;2.70;;;2.50;;
19800;SDS011;10060;48.274;12.214;2023-04-25T10:29:38;2.90;;;2.60;;
19800;SDS011;10060;48.274;12.214;2023-04-25T10:32:41;3.60;;;2.53;;
19800;SDS011;10060;48.274;12.214;2023-04-25T10:35:43;3.87;;;2.10;;
19800;SDS011;10060;48.274;12.214;2023-04-25T10:38:47;7.00;;;2.40;;
19800;SDS011;10060;48.274;12.214;2023-04-25T10:41:53;3.80;;;2.30;;
19800;SDS011;10060;48.274;12.214;2023-04-25T10:45:07;2.80;;;2.27;;
19800;SDS011;10060;48.274;12.214;2023-04-25T10:48:24;2.50;;;2.30;;
19800;SDS011;10060;48.274;12.214;2023-04-25T10:51:27;4.30;;;2.23;;
19800;SDS011;10060;48.274;12.214;2023-04-25T10:54:31;3.53;;;2.53;;
19800;SDS011;10060;48.274;12.214;2023-04-25T10:57:36;2.70;;;2.50;;
19800;SDS011;10060;48.274;12.214;2023-04-25T11:00:40;3.77;;;2.70;;
19800;SDS011;10060;48.274;12.214;2023-04-25T11:03:43;3.83;;;3.03;;
19800;SDS011;10060;48.274;12.214;2023-04-25T11:06:46;5.13;;;3.23;;
19800;SDS011;10060;48.274;12.214;2023-04-25T11:09:53;3.93;;;3.40;;
19800;SDS011;10060;48.274;12.214;2023-04-25T11:12:56;4.60;;;2.97;;
19800;SDS011;10060;48.274;12.214;2023-04-25T11:15:59;7.57;;;2.77;;
19800;SDS011;10060;48.274;12.214;2023-04-25T11:19:01;4.80;;;3.10;;
19800;SDS011;10060;48.274;12.214;2023-04-25T11:22:04;3.20;;;2.90;;
19800;SDS011;10060;48.274;12.214;2023-04-25T11:25:08;6.20;;;2.60;;
19800;SDS011;10060;48.274;12.214;2023-04-25T11:28:10;4.87;;;2.63;;
19800;SDS011;10060;48.274;12.214;2023-04-25T11:31:13;3.43;;;2.77;;
19800;SDS011;10060;48.274;12.214;2023-04-25T11:34:16;3.60;;;3.00;;
19800;SDS011;10060;48.274;12.214;2023-04-25T11:37:19;2.90;;;2.63;;
19800;SDS011;10060;48.274;12.214;2023-04-25T11:40:21;3.57;;;2.80;;
19800;SDS011;10060;48.274;12.214;2023-04-25T11:43:23;4.47;;;2.67;;
19800;SDS011;10060;48.274;12.214;2023-04-25T11:46:26;2.80;;;2.60;;
19800;SDS011;10060;48.274;12.214;2023-04-25T11:49:30;8.07;;;4.20;;
19800;SDS011;10060;48.274;12.214;2023-04-25T11:52:36;5.33;;;3.37;;
19800;SDS011;10060;48.274;12.214;2023-04-25T11:55:39;6.53;;;4.10;;
19800;SDS011;10060;48.274;12.214;2023-04-25T11:58:53;4.20;;;3.80;;
19800;SDS011;10060;48.274;12.214;2023-04-25T12:01:57;9.67;;;7.57;;
19800;SDS011;10060;48.274;12.214;2023-04-25T12:05:01;4.73;;;4.17;;
19800;SDS011;10060;48.274;12.214;2023-04-25T12:08:10;6.70;;;4.17;;
19800;SDS011;10060;48.274;12.214;2023-04-25T12:11:20;2.17;;;1.97;;
19800;SDS011;10060;48.274;12.214;2023-04-25T12:14:23;4.97;;;2.30;;
19800;SDS011;10060;48.274;12.214;2023-04-25T12:17:28;3.80;;;2.87;;
19800;SDS011;10060;48.274;12.214;2023-04-25T12:20:31;4.10;;;2.80;;
19800;SDS011;10060;48.274;12.214;2023-04-25T12:23:33;3.77;;;3.03;;
19800;SDS011;10060;48.274;12.214;2023-04-25T12:26:45;2.93;;;2.70;;
19800;SDS011;10060;48.274;12.214;2023-04-25T12:29:51;3.83;;;2.63;;
19800;SDS011;10060;48.274;12.214;2023-04-25T12:32:55;2.60;;;2.40;;
19800;SDS011;10060;48.274;12.214;2023-04-25T12:35:57;4.70;;;2.03;;
19800;SDS011;10060;48.274;12.214;2023-04-25T12:39:00;2.50;;;2.30;;
19800;SDS011;10060;48.274;12.214;2023-04-25T12:42:04;2.60;;;2.40;;
19800;SDS011;10060;48.274;12.214;2023-04-25T12:45:08;3.30;;;3.00;;
19800;SDS011;10060;48.274;12.214;2023-04-25T12:48:11;3.50;;;2.83;;
19800;SDS011;10060;48.274;12.214;2023-04-25T12:51:13;3.87;;;3.27;;
19800;SDS011;10060;48.274;12.214;2023-04-25T12:54:15;3.53;;;2.90;;
19800;SDS011;10060;48.274;12.214;2023-04-25T12:57:18;3.40;;;3.10;;
19800;SDS011;10060;48.274;12.214;2023-04-25T13:00:20;3.70;;;2.77;;
19800;SDS011;10060;48.274;12.214;2023-04-25T13:03:24;4.40;;;2.43;;
19800;SDS011;10060;48.274;12.214;2023-04-25T13:06:26;3.63;;;3.23;;
19800;SDS011;10060;48.274;12.214;2023-04-25T13:09:30;5.60;;;2.60;;
19800;SDS011;10060;48.274;12.214;2023-04-25T13:12:32;2.97;;;2.70;;
19800;SDS011;10060;48.274;12.214;2023-04-25T13:15:34;2.13;;;2.03;;
19800;SDS011;10060;48.274;12.214;2023-04-25T13:18:37;3.07;;;2.10;;
19800;SDS011;10060;48.274;12.214;2023-04-25T13:21:40;3.97;;;2.17;;
19800;SDS011;10060;48.274;12.214;2023-04-25T13:24:42;4.10;;;2.03;;
19800;SDS011;10060;48.274;12.214;2023-04-25T13:27:44;2.80;;;2.23;;
19800;SDS011;10060;48.274;12.214;2023-04-25T13:30:46;3.37;;;2.10;;
19800;SDS011;10060;48.274;12.214;2023-04-25T13:33:50;2.10;;;1.90;;
19800;SDS011;10060;48.274;12.214;2023-04-25T13:36:52;2.97;;;1.90;;
19800;SDS011;10060;48.274;12.214;2023-04-25T13:39:54;3.30;;;1.73;;
19800;SDS011;10060;48.274;12.214;2023-04-25T13:42:56;2.10;;;1.90;;
19800;SDS011;10060;48.274;12.214;2023-04-25T13:45:59;2.33;;;2.13;;
19800;SDS011;10060;48.274;12.214;2023-04-25T13:49:02;2.27;;;2.07;;
19800;SDS011;10060;48.274;12.214;2023-04-25T13:52:04;1.93;;;1.80;;
19800;SDS011;10060;48.274;12.214;2023-04-25T13:55:07;2.30;;;2.10;;
19800;SDS011;10060;48.274;12.214;2023-04-25T13:58:10;2.47;;;1.93;;
19800;SDS011;10060;48.274;12.214;2023-04-25T14:01:13;2.30;;;2.10;;
19800;SDS011;10060;48.274;12.214;2023-04-25T14:04:16;4.03;;;2.50;;
19800;SDS011;10060;48.274;12.214;2023-04-25T14:07:18;3.23;;;2.30;;
19800;SDS011;10060;48.274;12.214;2023-04-25T14:10:21;2.60;;;2.40;;
19800;SDS011;10060;48.274;12.214;2023-04-25T14:13:23;4.60;;;2.30;;
19800;SDS011;10060;48.274;12.214;2023-04-25T14:16:25;2.47;;;2.27;;
19800;SDS011;10060;48.274;12.214;2023-04-25T14:19:28;2.50;;;2.30;;
19800;SDS011;10060;48.274;12.214;2023-04-25T14:22:31;2.57;;;2.30;;
19800;SDS011;10060;48.274;12.214;2023-04-25T14:25:33;2.50;;;2.30;;
19800;SDS011;10060;48.274;12.214;2023-04-25T14:28:35;2.83;;;2.53;;
19800;SDS011;10060;48.274;12.214;2023-04-25T14:31:38;3.57;;;2.47;;
19800;SDS011;10060;48.274;12.214;2023-04-25T14:34:42;3.00;;;2.70;;
19800;SDS011;10060;48.274;12.214;2023-04-25T14:37:44;4.17;;;2.77;;
19800;SDS011;10060;48.274;12.214;2023-04-25T14:40:46;3.80;;;2.57;;
19800;SDS011;10060;48.274;12.214;2023-04-25T14:43:48;1.97;;;1.77;;
19800;SDS011;10060;48.274;12.214;2023-04-25T14:46:50;3.00;;;2.00;;
19800;SDS011;10060;48.274;12.214;2023-04-25T14:49:54;2.13;;;1.93;;
19800;SDS011;10060;48.274;12.214;2023-04-25T14:52:56;1.97;;;1.87;;
19800;SDS011;10060;48.274;12.214;2023-04-25T14:56:00;1.73;;;1.63;;
19800;SDS011;10060;48.274;12.214;2023-04-25T14:59:02;1.80;;;1.70;;
19800;SDS011;10060;48.274;12.214;2023-04-25T15:02:05;1.53;;;1.43;;
19800;SDS011;10060;48.274;12.214;2023-04-25T15:05:08;2.10;;;1.60;;
19800;SDS011;10060;48.274;12.214;2023-04-25T15:08:11;1.70;;;1.60;;
19800;SDS011;10060;48.274;12.214;2023-04-25T15:11:13;2.70;;;1.60;;
19800;SDS011;10060;48.274;12.214;2023-04-25T15:14:16;1.60;;;1.50;;
19800;SDS011;10060;48.274;12.214;2023-04-25T15:17:18;2.20;;;1.57;;
19800;SDS011;10060;48.274;12.214;2023-04-25T15:20:22;3.07;;;1.73;;
19800;SDS011;10060;48.274;12.214;2023-04-25T15:23:24;1.97;;;1.50;;
19800;SDS011;10060;48.274;12.214;2023-04-25T15:26:26;1.67;;;1.57;;
19800;SDS011;10060;48.274;12.214;2023-04-25T15:29:28;2.30;;;2.10;;
19800;SDS011;10060;48.274;12.214;2023-04-25T15:32:31;4.70;;;2.20;;
19800;SDS011;10060;48.274;12.214;2023-04-25T15:35:34;1.80;;;1.60;;
19800;SDS011;10060;48.274;12.214;2023-04-25T15:38:36;4.03;;;3.10;;
19800;SDS011;10060;48.274;12.214;2023-04-25T15:41:39;2.60;;;2.40;;
19800;SDS011;10060;48.274;12.214;2023-04-25T15:44:41;4.50;;;3.30;;
19800;SDS011;10060;48.274;12.214;2023-04-25T15:47:43;2.93;;;2.60;;
19800;SDS011;10060;48.274;12.214;2023-04-25T15:50:47;3.57;;;2.73;;
19800;SDS011;10060;48.274;12.214;2023-04-25T15:53:49;3.70;;;2.83;;
19800;SDS011;10060;48.274;12.214;2023-04-25T15:56:51;4.10;;;3.53;;
19800;SDS011;10060;48.274;12.214;2023-04-25T15:59:53;3.97;;;3.10;;
19800;SDS011;10060;48.274;12.214;2023-04-25T16:02:55;3.60;;;3.07;;
19800;SDS011;10060;48.274;12.214;2023-04-25T16:05:59;4.27;;;3.47;;
19800;SDS011;10060;48.274;12.214;2023-04-25T16:09:02;3.47;;;3.17;;
19800;SDS011;10060;48.274;12.214;2023-04-25T16:12:05;3.90;;;3.37;;
19800;SDS011;10060;48.274;12.214;2023-04-25T16:15:08;6.23;;;3.17;;
19800;SDS011;10060;48.274;12.214;2023-04-25T16:18:10;3.90;;;3.50;;
19800;SDS011;10060;48.274;12.214;2023-04-25T16:21:13;2.90;;;2.67;;
19800;SDS011;10060;48.274;12.214;2023-04-25T16:24:16;4.37;;;3.10;;
19800;SDS011;10060;48.274;12.214;2023-04-25T16:27:18;5.20;;;3.03;;
19800;SDS011;10060;48.274;12.214;2023-04-25T16:30:21;3.60;;;3.30;;
19800;SDS011;10060;48.274;12.214;2023-04-25T16:33:23;4.23;;;2.90;;
19800;SDS011;10060;48.274;12.214;2023-04-25T16:36:27;3.70;;;2.80;;
19800;SDS011;10060;48.274;12.214;2023-04-25T16:39:30;3.00;;;2.50;;
19800;SDS011;10060;48.274;12.214;2023-04-25T16:42:33;2.70;;;2.50;;
19800;SDS011;10060;48.274;12.214;2023-04-25T16:45:35;2.60;;;2.40;;
19800;SDS011;10060;48.274;12.214;2023-04-25T16:48:37;2.80;;;2.60;;
19800;SDS011;10060;48.274;12.214;2023-04-25T16:51:40;3.13;;;2.77;;
19800;SDS011;10060;48.274;12.214;2023-04-25T16:54:43;3.43;;;2.73;;
19800;SDS011;10060;48.274;12.214;2023-04-25T16:57:45;4.40;;;2.70;;
19800;SDS011;10060;48.274;12.214;2023-04-25T17:00:47;3.20;;;2.90;;
19800;SDS011;10060;48.274;12.214;2023-04-25T17:03:49;4.27;;;3.23;;
19800;SDS011;10060;48.274;12.214;2023-04-25T17:06:53;3.53;;;3.00;;
19800;SDS011;10060;48.274;12.214;2023-04-25T17:09:55;4.27;;;3.10;;
19800;SDS011;10060;48.274;12.214;2023-04-25T17:12:57;8.10;;;3.50;;
19800;SDS011;10060;48.274;12.214;2023-04-25T17:15:59;3.70;;;3.20;;
19800;SDS011;10060;48.274;12.214;2023-04-25T17:19:02;5.03;;;3.63;;
19800;SDS011;10060;48.274;12.214;2023-04-25T17:22:06;3.60;;;3.10;;
19800;SDS011;10060;48.274;12.214;2023-04-25T17:25:08;5.73;;;4.30;;
19800;SDS011;10060;48.274;12.214;2023-04-25T17:28:10;5.63;;;3.43;;
19800;SDS011;10060;48.274;12.214;2023-04-25T17:31:13;5.57;;;3.50;;
19800;SDS011;10060;48.274;12.214;2023-04-25T17:34:15;3.73;;;3.43;;
19800;SDS011;10060;48.274;12.214;2023-04-25T17:37:19;4.23;;;3.50;;
19800;SDS011;10060;48.274;12.214;2023-04-25T17:40:22;6.23;;;3.50;;
19800;SDS011;10060;48.274;12.214;2023-04-25T17:43:24;4.53;;;3.70;;
19800;SDS011;10060;48.274;12.214;2023-04-25T17:46:27;6.73;;;4.00;;
19800;SDS011;10060;48.274;12.214;2023-04-25T17:49:30;5.97;;;4.13;;
19800;SDS011;10060;48.274;12.214;2023-04-25T17:52:34;4.33;;;3.57;;
19800;SDS011;10060;48.274;12.214;2023-04-25T17:55:37;5.50;;;4.17;;
19800;SDS011;10060;48.274;12.214;2023-04-25T17:58:42;5.23;;;3.90;;
19800;SDS011;10060;48.274;12.214;2023-04-25T18:01:44;5.03;;;4.00;;
19800;SDS011;10060;48.274;12.214;2023-04-25T18:04:46;5.70;;;4.60;;